Guy, TX

2:04 AM CDT on July 04, 2015 (GMT -0500)
Melvin Court | | Change Station
CLOSE
Current Station
Personal Weather Station
Location: Needville, TX
Elevation: 88 ft
Nearby Weather Stations

Elev 88 ft 29.39 °N, 95.84 °W | Updated 52 seconds ago

Clear
Clear
18.5 °F
Feels Like 18 °F
N
2.7
Wind Variable Wind from South

Today
High -- | Low -- °F
--% Chance of Precip.
Yesterday
High -- | Low -- °F
Precip. -- in
6:28 AM 8:26 PM
Waning Gibbous, 94% visible
Pressure 29.99 in
Visibility 7.0 miles
Clouds Clear
Windchill 18 °F
Dew Point 18 °F
Humidity 99%
Rainfall 0.00 in
Snow Depth Not available.
UV 0 out of 12
Pollen 3.60 out of 12
Air Quality Not available.
Flu Activity Not available.
METAR KARM 040655Z AUTO 15004KT 7SM CLR 25/24 A2999 RMK AO2 T02460240

More Conditions Fewer Conditions

Pressure 29.99 in
Visibility 7.0 miles
Clouds Clear
Windchill 18 °F
Dew Point 18 °F
Humidity 99%
Rainfall 0.00 in
Snow Depth Not available.
UV 0 out of 12
Pollen 3.60 out of 12
Air Quality Not available.
Flu Activity Not available.
METAR KARM 040655Z AUTO 15004KT 7SM CLR 25/24 A2999 RMK AO2 T02460240

More Conditions Fewer Conditions

10-Day Weather Forecast

×

Almanac

Astronomy

Jul. 04, 2015 Rise Set
Actual Time
Civil Twilight
Nautical Twilight
Astronomical Twilight
Moon
Length of Visible Light
Length of Day
Tomorrow will be .
, % of the Moon is Illuminated

Today's Extremes

State Highs State Lows

Community

WunderPhotos

Upload Photos

1,834,926 photos uploaded!

WunderBlogs® & News

Nearby

Air Quality

  Air Quality AQ Index Pollutant
Not available.

Snow Depth

Station Depth Elevation

Earthquake Activity

City Distance Mag. Time & Date
Minimum magnitude displayed is 2.5.

Coastal Water Temperatures

Place Temperature

Stations

Nearby Weather Stations

Station Location Temp. Windchill Dew Point Humidity Wind Precip. Elev Updated Type